createdAt,value
2023-04-09T00:01:11.920Z,97727.18
2023-04-09T00:03:40.662Z,97727.89
2023-04-09T00:06:08.808Z,97724.64
2023-04-09T00:08:36.651Z,97727.33
2023-04-09T00:11:05.728Z,97727.41
2023-04-09T00:13:39.191Z,97728.80
2023-04-09T00:16:09.491Z,97727.30
2023-04-09T00:18:37.506Z,97727.73
2023-04-09T00:21:05.750Z,97732.26
2023-04-09T00:23:34.480Z,97727.64
2023-04-09T00:26:02.329Z,97730.25
2023-04-09T00:28:30.647Z,97728.51
2023-04-09T00:30:58.682Z,97731.78
2023-04-09T00:33:26.642Z,97728.11
2023-04-09T00:35:54.590Z,97731.26
2023-04-09T00:38:22.644Z,97733.64
2023-04-09T00:40:51.356Z,97731.19
2023-04-09T00:43:19.330Z,97727.70
2023-04-09T00:45:47.631Z,97730.36
2023-04-09T00:48:16.417Z,97727.30
2023-04-09T00:50:44.568Z,97728.64
2023-04-09T00:53:14.359Z,97727.34
2023-04-09T00:55:42.378Z,97727.68
2023-04-09T00:58:10.282Z,97730.59
2023-04-09T01:00:38.273Z,97728.52
2023-04-09T01:03:07.633Z,97728.52
2023-04-09T01:06:02.231Z,97729.07
2023-04-09T01:08:33.100Z,97726.26
2023-04-09T01:11:14.123Z,97726.13
2023-04-09T01:14:00.592Z,97725.03
2023-04-09T01:16:32.818Z,97725.60
2023-04-09T01:19:22.986Z,97724.45
2023-04-09T01:21:52.709Z,97725.27
2023-04-09T01:24:59.901Z,97725.11
2023-04-09T01:27:47.159Z,97727.01
2023-04-09T01:30:17.292Z,97725.02
2023-04-09T01:32:45.948Z,97728.52
2023-04-09T01:35:14.409Z,97728.23
2023-04-09T01:37:42.984Z,97729.09
2023-04-09T01:40:11.366Z,97729.17
2023-04-09T01:42:41.164Z,97728.91
2023-04-09T01:45:11.844Z,97726.48
2023-04-09T01:47:40.755Z,97724.44
2023-04-09T01:50:09.222Z,97724.29
2023-04-09T01:52:37.378Z,97727.64
2023-04-09T01:55:05.741Z,97724.62
2023-04-09T01:57:33.654Z,97724.12
2023-04-09T02:00:01.609Z,97725.13
2023-04-09T02:02:42.966Z,97723.95
2023-04-09T02:05:15.466Z,97723.92
2023-04-09T02:07:47.500Z,97726.98
2023-04-09T02:10:17.414Z,97729.50
2023-04-09T02:12:50.029Z,97727.95
2023-04-09T02:15:20.420Z,97728.54
2023-04-09T02:17:48.454Z,97729.65
2023-04-09T02:20:20.056Z,97729.70
2023-04-09T02:22:48.470Z,97728.43
2023-04-09T02:25:16.475Z,97726.84
2023-04-09T02:27:44.335Z,97727.58
2023-04-09T02:30:12.349Z,97724.89
2023-04-09T02:32:40.413Z,97722.06
2023-04-09T02:35:08.413Z,97724.35
2023-04-09T02:37:36.412Z,97723.58
2023-04-09T02:40:04.600Z,97722.06
2023-04-09T02:42:32.606Z,97721.89
2023-04-09T02:45:00.502Z,97719.63
2023-04-09T02:47:30.579Z,97714.13
2023-04-09T02:49:58.589Z,97714.17
2023-04-09T02:52:26.392Z,97717.36
2023-04-09T02:54:54.417Z,97715.98
2023-04-09T02:57:22.416Z,97715.42
2023-04-09T02:59:50.347Z,97715.41
2023-04-09T03:02:18.289Z,97716.55
2023-04-09T03:04:46.334Z,97715.72
2023-04-09T03:07:14.216Z,97711.50
2023-04-09T03:09:42.116Z,97715.61
2023-04-09T03:12:10.140Z,97716.08
2023-04-09T03:14:37.968Z,97715.98
2023-04-09T03:17:05.978Z,97711.25
2023-04-09T03:19:34.021Z,97710.94
2023-04-09T03:22:02.473Z,97711.85
2023-04-09T03:24:32.264Z,97716.48
2023-04-09T03:27:00.389Z,97713.72
2023-04-09T03:29:28.237Z,97714.55
2023-04-09T03:31:56.143Z,97717.70
2023-04-09T03:34:24.695Z,97718.16
2023-04-09T03:36:52.846Z,97720.36
2023-04-09T03:39:20.747Z,97720.55
2023-04-09T03:41:48.909Z,97721.73
2023-04-09T03:44:17.046Z,97723.62
2023-04-09T03:46:45.591Z,97726.13
2023-04-09T03:49:13.557Z,97727.66
2023-04-09T03:51:41.619Z,97729.83
2023-04-09T03:54:09.516Z,97730.62
2023-04-09T03:56:37.393Z,97736.17
2023-04-09T03:59:05.496Z,97741.25
2023-04-09T04:01:33.506Z,97738.84
2023-04-09T04:04:01.822Z,97745.58
2023-04-09T04:06:30.066Z,97745.39
2023-04-09T04:08:57.988Z,97748.27
2023-04-09T04:11:25.967Z,97750.95
2023-04-09T04:13:55.856Z,97749.25
2023-04-09T04:16:24.321Z,97750.86
2023-04-09T04:18:52.408Z,97752.73
2023-04-09T04:21:20.426Z,97751.31
2023-04-09T04:23:48.314Z,97753.66
2023-04-09T04:26:16.237Z,97758.03
2023-04-09T04:28:44.374Z,97761.55
2023-04-09T04:31:13.176Z,97766.94
2023-04-09T04:33:42.464Z,97764.57
2023-04-09T04:36:14.516Z,97761.82
2023-04-09T04:38:42.694Z,97764.36
2023-04-09T04:41:11.540Z,97765.36
2023-04-09T04:43:41.485Z,97761.88
2023-04-09T04:46:09.465Z,97759.52
2023-04-09T04:48:37.812Z,97764.97
2023-04-09T04:51:05.828Z,97764.02
2023-04-09T04:53:33.711Z,97766.69
2023-04-09T04:56:01.699Z,97767.02
2023-04-09T04:58:30.636Z,97763.08
2023-04-09T05:00:58.746Z,97762.01
2023-04-09T05:03:27.705Z,97761.57
2023-04-09T05:05:56.212Z,97762.39
2023-04-09T05:08:24.151Z,97767.22
2023-04-09T05:10:52.112Z,97769.96
2023-04-09T05:13:19.968Z,97774.65
2023-04-09T05:15:47.961Z,97775.11
2023-04-09T05:18:15.968Z,97774.37
2023-04-09T05:20:43.865Z,97773.40
2023-04-09T05:23:12.766Z,97775.10
2023-04-09T05:25:41.028Z,97776.61
2023-04-09T05:28:11.251Z,97777.76
2023-04-09T05:30:39.348Z,97778.23
2023-04-09T05:33:07.367Z,97780.10
2023-04-09T05:35:39.338Z,97782.55
2023-04-09T05:38:07.289Z,97784.00
2023-04-09T05:40:35.551Z,97783.30
2023-04-09T05:43:03.498Z,97787.61
2023-04-09T05:45:31.492Z,97793.13
2023-04-09T05:47:59.418Z,97795.57
2023-04-09T05:50:27.530Z,97796.44
2023-04-09T05:52:55.990Z,97800.92
2023-04-09T05:55:23.845Z,97801.69
2023-04-09T05:57:54.671Z,97807.39
2023-04-09T06:00:22.548Z,97809.56
2023-04-09T06:02:50.950Z,97810.56
2023-04-09T06:05:18.869Z,97812.67
2023-04-09T06:07:46.826Z,97815.83
2023-04-09T06:10:14.680Z,97819.48
2023-04-09T06:12:42.521Z,97820.50
2023-04-09T06:15:11.022Z,97823.20
2023-04-09T06:17:39.112Z,97822.43
2023-04-09T06:20:07.782Z,97818.73
2023-04-09T06:22:35.818Z,97820.08
2023-04-09T06:25:04.285Z,97821.77
2023-04-09T06:27:32.279Z,97824.67
2023-04-09T06:30:00.376Z,97826.60
2023-04-09T06:32:28.313Z,97824.80
2023-04-09T06:34:56.320Z,97824.54
2023-04-09T06:37:24.651Z,97827.73
2023-04-09T06:40:00.497Z,97824.10
2023-04-09T06:42:29.076Z,97827.69
2023-04-09T06:44:57.204Z,97827.22
2023-04-09T06:47:25.613Z,97826.42
2023-04-09T06:49:53.575Z,97822.73
2023-04-09T06:52:21.518Z,97824.77
2023-04-09T06:54:49.393Z,97825.79
2023-04-09T06:57:17.361Z,97825.30
2023-04-09T06:59:45.761Z,97823.53
2023-04-09T07:02:13.981Z,97822.27
2023-04-09T07:04:42.215Z,97820.76
2023-04-09T07:07:10.668Z,97817.46
2023-04-09T07:09:38.639Z,97815.33
2023-04-09T07:12:06.557Z,97815.55
2023-04-09T07:14:34.452Z,97812.13
2023-04-09T07:17:02.493Z,97809.64
2023-04-09T07:19:30.994Z,97810.48
2023-04-09T07:21:58.848Z,97810.54
2023-04-09T07:24:26.925Z,97810.05
2023-04-09T07:26:54.731Z,97811.09
2023-04-09T07:29:22.662Z,97810.30
2023-04-09T07:31:51.052Z,97807.80
2023-04-09T07:34:19.033Z,97806.89
2023-04-09T07:36:46.862Z,97810.33
2023-04-09T07:39:14.673Z,97809.16
2023-04-09T07:41:42.664Z,97811.90
2023-04-09T07:44:10.501Z,97814.85
2023-04-09T07:46:40.016Z,97817.14
2023-04-09T07:49:07.961Z,97818.20
2023-04-09T07:51:35.918Z,97819.27
2023-04-09T07:54:03.798Z,97822.35
2023-04-09T07:56:31.694Z,97823.09
2023-04-09T07:58:59.544Z,97823.52
2023-04-09T08:01:27.667Z,97821.21
2023-04-09T08:03:55.724Z,97828.10
2023-04-09T08:06:23.765Z,97824.83
2023-04-09T08:08:51.926Z,97829.52
2023-04-09T08:11:25.262Z,97826.90
2023-04-09T08:13:53.265Z,97827.27
2023-04-09T08:16:21.464Z,97822.91
2023-04-09T08:18:51.375Z,97818.59
2023-04-09T08:21:20.101Z,97813.71
2023-04-09T08:23:48.195Z,97812.95
2023-04-09T08:26:16.066Z,97817.48
2023-04-09T08:28:44.005Z,97813.06
2023-04-09T08:31:11.866Z,97814.27
2023-04-09T08:33:39.697Z,97813.59
2023-04-09T08:36:11.949Z,97813.46
2023-04-09T08:38:40.766Z,97812.67
2023-04-09T08:41:17.176Z,97813.39
2023-04-09T08:46:21.917Z,97811.61
2023-04-09T08:48:51.937Z,97814.56
2023-04-09T08:51:22.733Z,97812.38
2023-04-09T08:53:58.340Z,97810.02
2023-04-09T08:56:26.733Z,97807.41
2023-04-09T08:58:56.307Z,97803.88
2023-04-09T09:01:31.902Z,97801.76
2023-04-09T09:04:08.340Z,97802.19
2023-04-09T09:06:38.713Z,97803.05
2023-04-09T09:09:07.754Z,97803.40
2023-04-09T09:11:38.017Z,97801.00
2023-04-09T09:14:08.661Z,97800.04
2023-04-09T09:16:45.349Z,97801.90
2023-04-09T09:19:25.632Z,97799.20
2023-04-09T09:22:01.846Z,97796.69
2023-04-09T09:24:31.053Z,97794.59
2023-04-09T09:26:59.237Z,97794.98
2023-04-09T09:29:28.224Z,97798.58
2023-04-09T09:31:56.641Z,97796.94
2023-04-09T09:34:26.251Z,97796.95
2023-04-09T09:36:54.552Z,97796.59
2023-04-09T09:39:22.750Z,97791.67
2023-04-09T09:42:09.660Z,97793.02
2023-04-09T09:44:37.523Z,97790.77
2023-04-09T09:47:06.392Z,97788.52
2023-04-09T09:49:37.990Z,97785.77
2023-04-09T09:52:11.567Z,97785.69
2023-04-09T09:54:43.973Z,97782.23
2023-04-09T09:57:14.644Z,97782.98
2023-04-09T09:59:50.981Z,97785.77
2023-04-09T10:02:20.682Z,97782.98
2023-04-09T10:04:52.825Z,97781.77
2023-04-09T10:07:22.441Z,97781.14
2023-04-09T10:09:52.031Z,97776.10
2023-04-09T10:12:25.786Z,97775.20
2023-04-09T10:14:56.305Z,97776.17
2023-04-09T10:17:24.194Z,97772.88
2023-04-09T10:20:22.160Z,97769.11
2023-04-09T10:22:51.838Z,97766.45
2023-04-09T10:25:20.712Z,97765.34
2023-04-09T10:28:16.601Z,97765.80
2023-04-09T10:30:44.815Z,97765.80
2023-04-09T10:33:17.166Z,97768.00
2023-04-09T10:35:47.249Z,97770.39
2023-04-09T10:38:15.553Z,97769.28
2023-04-09T10:40:51.035Z,97771.95
2023-04-09T10:43:21.124Z,97772.13
2023-04-09T10:45:53.581Z,97769.95
2023-04-09T10:48:26.711Z,97769.91
2023-04-09T10:50:55.474Z,97769.50
2023-04-09T10:53:24.870Z,97763.20
2023-04-09T10:55:54.358Z,97762.83
2023-04-09T10:58:22.225Z,97759.46
2023-04-09T11:00:51.488Z,97756.61
2023-04-09T11:03:25.312Z,97754.02
2023-04-09T11:06:11.845Z,97755.08
2023-04-09T11:08:41.667Z,97757.09
2023-04-09T11:11:09.683Z,97757.70
2023-04-09T11:13:37.592Z,97756.27
2023-04-09T11:16:07.338Z,97752.19
2023-04-09T11:18:37.132Z,97750.77
2023-04-09T11:21:05.286Z,97752.29
2023-04-09T11:23:33.980Z,97752.37
2023-04-09T11:26:02.525Z,97754.16
2023-04-09T11:28:30.473Z,97751.46
2023-04-09T11:30:58.324Z,97748.06
2023-04-09T11:33:33.254Z,97752.13
2023-04-09T11:36:01.824Z,97747.00
2023-04-09T11:38:31.832Z,97748.27
2023-04-09T11:40:59.759Z,97747.63
2023-04-09T11:43:27.814Z,97750.25
2023-04-09T11:45:57.512Z,97753.36
2023-04-09T11:48:26.067Z,97751.02
2023-04-09T11:50:54.314Z,97752.33
2023-04-09T11:53:23.756Z,97753.40
2023-04-09T11:55:53.321Z,97755.61
2023-04-09T11:58:26.376Z,97755.36
2023-04-09T12:00:56.420Z,97755.52
2023-04-09T12:03:33.170Z,97754.91
2023-04-09T12:06:03.042Z,97750.94
2023-04-09T12:08:31.845Z,97752.45
2023-04-09T12:11:09.375Z,97755.89
2023-04-09T12:13:37.360Z,97750.37
2023-04-09T12:16:05.736Z,97748.27
2023-04-09T12:18:36.793Z,97745.98
2023-04-09T12:21:05.801Z,97744.30
2023-04-09T12:23:33.657Z,97742.79
2023-04-09T12:26:02.364Z,97743.12
2023-04-09T12:28:30.901Z,97740.95
2023-04-09T12:30:59.657Z,97735.50
2023-04-09T12:33:27.608Z,97737.34
2023-04-09T12:35:58.383Z,97734.68
2023-04-09T12:38:26.911Z,97734.15
2023-04-09T12:40:54.932Z,97734.72
2023-04-09T12:43:22.900Z,97735.73
2023-04-09T12:45:52.871Z,97734.13
2023-04-09T12:48:20.981Z,97731.16
2023-04-09T12:50:48.882Z,97726.78
2023-04-09T12:53:16.825Z,97728.48
2023-04-09T12:55:44.729Z,97725.96
2023-04-09T12:58:12.672Z,97725.44
2023-04-09T13:00:40.809Z,97719.04
2023-04-09T13:03:09.270Z,97716.35
2023-04-09T13:05:37.344Z,97716.81
2023-04-09T13:08:05.288Z,97713.73
2023-04-09T13:10:33.380Z,97713.36
2023-04-09T13:13:01.534Z,97713.55
2023-04-09T13:15:29.580Z,97713.88
2023-04-09T13:17:57.637Z,97713.69
2023-04-09T13:20:25.632Z,97707.48
2023-04-09T13:22:53.500Z,97709.10
2023-04-09T13:25:21.504Z,97708.05
2023-04-09T13:27:49.445Z,97704.41
2023-04-09T13:30:17.424Z,97706.55
2023-04-09T13:32:45.893Z,97707.59
2023-04-09T13:35:14.096Z,97708.42
2023-04-09T13:37:42.254Z,97704.49
2023-04-09T13:40:10.681Z,97704.23
2023-04-09T13:42:38.604Z,97700.44
2023-04-09T13:45:07.143Z,97703.64
2023-04-09T13:47:35.159Z,97705.31
2023-04-09T13:50:03.200Z,97702.73
2023-04-09T13:52:32.855Z,97701.81
2023-04-09T13:55:00.824Z,97697.23
2023-04-09T13:57:28.680Z,97697.66
2023-04-09T13:59:56.596Z,97697.17
2023-04-09T14:02:24.929Z,97698.65
2023-04-09T14:04:53.107Z,97698.16
2023-04-09T14:07:21.132Z,97693.78
2023-04-09T14:09:50.797Z,97693.95
2023-04-09T14:12:18.786Z,97691.17
2023-04-09T14:14:46.645Z,97692.52
2023-04-09T14:17:14.620Z,97693.17
2023-04-09T14:19:42.559Z,97692.15
2023-04-09T14:22:11.607Z,97692.16
2023-04-09T14:24:42.200Z,97689.89
2023-04-09T14:27:10.323Z,97686.96
2023-04-09T14:29:38.193Z,97687.42
2023-04-09T14:32:06.281Z,97688.20
2023-04-09T14:34:34.295Z,97686.60
2023-04-09T14:37:02.903Z,97684.69
2023-04-09T14:39:30.835Z,97682.94
2023-04-09T14:41:58.627Z,97683.77
2023-04-09T14:44:27.301Z,97681.84
2023-04-09T14:46:56.912Z,97682.30
2023-04-09T14:49:25.257Z,97680.86
2023-04-09T14:51:53.141Z,97681.59
2023-04-09T14:54:21.349Z,97680.81
2023-04-09T14:56:49.245Z,97680.28
2023-04-09T14:59:17.106Z,97673.73
2023-04-09T15:01:45.265Z,97673.81
2023-04-09T15:04:13.353Z,97675.94
2023-04-09T15:06:41.333Z,97677.26
2023-04-09T15:09:09.312Z,97673.73
2023-04-09T15:11:37.166Z,97671.75
2023-04-09T15:14:04.948Z,97672.17
2023-04-09T15:16:37.428Z,97670.36
2023-04-09T15:19:05.616Z,97672.41
2023-04-09T15:21:33.492Z,97672.24
2023-04-09T15:24:01.550Z,97670.23
2023-04-09T15:26:29.458Z,97665.86
2023-04-09T15:29:07.917Z,97669.05
2023-04-09T15:31:36.399Z,97667.39
2023-04-09T15:34:05.220Z,97668.58
2023-04-09T15:36:33.116Z,97669.30
2023-04-09T15:39:05.077Z,97665.88
2023-04-09T15:41:33.962Z,97664.02
2023-04-09T15:44:01.806Z,97659.63
2023-04-09T15:46:29.756Z,97662.55
2023-04-09T15:48:57.627Z,97654.80
2023-04-09T15:51:27.070Z,97658.32
2023-04-09T15:53:55.452Z,97657.14
2023-04-09T15:56:23.786Z,97655.38
2023-04-09T15:58:51.802Z,97654.30
2023-04-09T16:01:20.133Z,97657.20
2023-04-09T16:03:52.130Z,97652.84
2023-04-09T16:06:20.235Z,97651.77
2023-04-09T16:08:48.225Z,97648.94
2023-04-09T16:11:17.474Z,97649.34
2023-04-09T16:13:46.286Z,97649.44
2023-04-09T16:16:14.278Z,97648.61
2023-04-09T16:18:42.280Z,97649.50
2023-04-09T16:21:10.127Z,97654.17
2023-04-09T16:23:38.652Z,97652.23
2023-04-09T16:26:07.120Z,97649.30
2023-04-09T16:28:35.118Z,97650.77
2023-04-09T16:31:03.212Z,97650.61
2023-04-09T16:33:31.254Z,97651.40
2023-04-09T16:35:59.580Z,97651.15
2023-04-09T16:38:29.257Z,97652.36
2023-04-09T16:40:57.230Z,97657.02
2023-04-09T16:43:25.883Z,97655.91
2023-04-09T16:45:53.881Z,97654.05
2023-04-09T16:48:21.898Z,97652.63
2023-04-09T16:50:49.786Z,97656.02
2023-04-09T16:53:17.834Z,97656.73
2023-04-09T16:55:45.843Z,97658.36
2023-04-09T16:58:13.701Z,97657.87
2023-04-09T17:00:42.068Z,97657.12
2023-04-09T17:03:10.330Z,97660.29
2023-04-09T17:05:38.468Z,97660.73
2023-04-09T17:08:06.873Z,97662.20
2023-04-09T17:10:36.888Z,97662.10
2023-04-09T17:13:04.833Z,97661.92
2023-04-09T17:15:32.636Z,97665.42
2023-04-09T17:18:01.609Z,97666.33
2023-04-09T17:20:30.121Z,97665.77
2023-04-09T17:22:57.982Z,97670.82
2023-04-09T17:25:26.034Z,97673.80
2023-04-09T17:27:54.580Z,97672.65
2023-04-09T17:30:22.491Z,97676.77
2023-04-09T17:32:51.338Z,97681.24
2023-04-09T17:35:19.296Z,97680.52
2023-04-09T17:37:47.282Z,97683.73
2023-04-09T17:40:17.521Z,97683.87
2023-04-09T17:42:46.497Z,97685.52
2023-04-09T17:45:15.005Z,97687.30
2023-04-09T17:47:42.919Z,97689.23
2023-04-09T17:50:11.359Z,97692.58
2023-04-09T17:52:40.676Z,97689.73
2023-04-09T17:55:12.441Z,97693.70
2023-04-09T17:57:41.916Z,97694.73
2023-04-09T18:00:11.140Z,97695.05
2023-04-09T18:02:39.593Z,97699.67
2023-04-09T18:05:08.472Z,97702.57
2023-04-09T18:07:36.803Z,97707.38
2023-04-09T18:10:05.587Z,97709.82
2023-04-09T18:12:33.547Z,97709.81
2023-04-09T18:15:01.598Z,97711.05
2023-04-09T18:17:29.672Z,97711.94
2023-04-09T18:19:58.465Z,97712.38
2023-04-09T18:22:27.670Z,97712.32
2023-04-09T18:24:55.875Z,97720.97
2023-04-09T18:27:23.770Z,97721.52
2023-04-09T18:29:51.777Z,97721.02
2023-04-09T18:32:19.945Z,97722.02
2023-04-09T18:34:49.681Z,97722.31
2023-04-09T18:37:18.385Z,97724.52
2023-04-09T18:39:46.859Z,97726.72
2023-04-09T18:42:14.738Z,97723.63
2023-04-09T18:44:42.828Z,97724.16
2023-04-09T18:47:11.230Z,97724.42
2023-04-09T18:49:39.170Z,97724.36
2023-04-09T18:52:13.198Z,97723.08
2023-04-09T18:54:41.078Z,97726.27
2023-04-09T18:57:09.025Z,97728.73
2023-04-09T18:59:37.394Z,97730.14
2023-04-09T19:02:06.019Z,97728.12
2023-04-09T19:04:36.587Z,97732.31
2023-04-09T19:07:05.314Z,97734.29
2023-04-09T19:09:33.722Z,97734.80
2023-04-09T19:12:02.288Z,97735.39
2023-04-09T19:14:30.487Z,97731.11
2023-04-09T19:16:59.653Z,97732.27
2023-04-09T19:19:29.170Z,97732.81
2023-04-09T19:21:58.518Z,97732.59
2023-04-09T19:24:26.489Z,97730.30
2023-04-09T19:26:55.103Z,97729.41
2023-04-09T19:29:22.995Z,97730.23
2023-04-09T19:31:51.204Z,97730.91
2023-04-09T19:34:19.126Z,97729.92
2023-04-09T19:36:46.884Z,97730.33
2023-04-09T19:39:15.503Z,97731.75
2023-04-09T19:41:46.078Z,97728.97
2023-04-09T19:44:14.048Z,97730.86
2023-04-09T19:46:41.894Z,97732.42
2023-04-09T19:49:09.773Z,97732.45
2023-04-09T19:51:38.887Z,97733.76
2023-04-09T19:54:06.994Z,97734.52
2023-04-09T19:56:35.071Z,97737.33
2023-04-09T19:59:03.011Z,97733.95
2023-04-09T20:01:31.047Z,97733.60
2023-04-09T20:03:59.884Z,97735.25
2023-04-09T20:06:28.970Z,97736.00
2023-04-09T20:08:56.948Z,97738.54
2023-04-09T20:11:24.900Z,97734.77
2023-04-09T20:13:52.867Z,97734.24
2023-04-09T20:16:20.782Z,97732.91
2023-04-09T20:18:48.761Z,97729.70
2023-04-09T20:21:16.697Z,97730.74
2023-04-09T20:23:45.587Z,97731.92
2023-04-09T20:26:13.848Z,97729.95
2023-04-09T20:28:42.095Z,97733.09
2023-04-09T20:31:10.047Z,97732.48
2023-04-09T20:33:37.979Z,97732.45
2023-04-09T20:36:17.285Z,97732.48
2023-04-09T20:38:45.501Z,97734.13
2023-04-09T20:41:13.645Z,97733.34
2023-04-09T20:43:41.560Z,97729.02
2023-04-09T20:46:09.731Z,97727.54
2023-04-09T20:48:38.101Z,97730.80
2023-04-09T20:51:10.780Z,97731.70
2023-04-09T20:53:39.153Z,97730.08
2023-04-09T20:56:08.581Z,97729.26
2023-04-09T20:58:36.831Z,97730.66
2023-04-09T21:01:07.407Z,97733.64
2023-04-09T21:03:36.742Z,97736.62
2023-04-09T21:06:05.421Z,97737.12
2023-04-09T21:08:33.226Z,97739.35
2023-04-09T21:11:02.252Z,97740.39
2023-04-09T21:13:33.719Z,97739.16
2023-04-09T21:16:08.595Z,97741.44
2023-04-09T21:18:36.563Z,97741.55
2023-04-09T21:21:07.992Z,97744.02
2023-04-09T21:23:35.929Z,97740.66
2023-04-09T21:26:05.010Z,97745.31
2023-04-09T21:28:33.130Z,97743.43
2023-04-09T21:31:00.993Z,97743.66
2023-04-09T21:33:30.194Z,97743.89
2023-04-09T21:35:58.424Z,97740.50
2023-04-09T21:38:26.403Z,97746.20
2023-04-09T21:40:54.287Z,97741.46
2023-04-09T21:43:22.201Z,97746.94
2023-04-09T21:45:50.732Z,97746.83
2023-04-09T21:48:18.581Z,97744.42
2023-04-09T21:50:46.500Z,97743.92
2023-04-09T21:53:15.656Z,97741.70
2023-04-09T21:55:43.552Z,97742.85
2023-04-09T21:58:12.142Z,97742.71
2023-04-09T22:00:40.123Z,97741.95
2023-04-09T22:03:08.259Z,97743.38
2023-04-09T22:05:36.590Z,97742.85
2023-04-09T22:08:04.455Z,97745.02
2023-04-09T22:10:32.385Z,97748.11
2023-04-09T22:13:00.281Z,97750.33
2023-04-09T22:15:28.345Z,97751.58
2023-04-09T22:17:56.312Z,97752.08
2023-04-09T22:20:26.226Z,97749.02
2023-04-09T22:22:54.755Z,97748.98
2023-04-09T22:25:22.733Z,97748.77
2023-04-09T22:27:53.310Z,97746.00
2023-04-09T22:30:22.004Z,97748.94
2023-04-09T22:32:51.526Z,97748.62
2023-04-09T22:35:19.564Z,97745.95
2023-04-09T22:37:47.548Z,97746.08
2023-04-09T22:40:16.025Z,97746.90
2023-04-09T22:42:46.681Z,97745.39
2023-04-09T22:45:14.679Z,97741.83
2023-04-09T22:47:42.542Z,97742.33
2023-04-09T22:50:11.211Z,97741.02
2023-04-09T22:52:39.082Z,97737.63
2023-04-09T22:55:10.128Z,97731.80
2023-04-09T22:57:38.450Z,97726.78
2023-04-09T23:00:08.506Z,97726.59
2023-04-09T23:02:37.055Z,97725.94
2023-04-09T23:05:05.840Z,97726.42
2023-04-09T23:07:34.083Z,97722.80
2023-04-09T23:10:02.071Z,97721.55
2023-04-09T23:12:29.861Z,97718.30
2023-04-09T23:14:57.767Z,97719.73
2023-04-09T23:17:27.890Z,97721.58
2023-04-09T23:19:55.804Z,97718.60
2023-04-09T23:22:24.392Z,97720.98
2023-04-09T23:24:52.218Z,97717.38
2023-04-09T23:27:20.327Z,97717.23
2023-04-09T23:29:48.317Z,97718.85
2023-04-09T23:32:16.325Z,97721.88
2023-04-09T23:34:44.140Z,97721.87
2023-04-09T23:37:12.110Z,97716.60
2023-04-09T23:39:41.262Z,97716.56
2023-04-09T23:42:09.206Z,97715.66
2023-04-09T23:44:37.164Z,97715.02
2023-04-09T23:47:06.588Z,97711.23
2023-04-09T23:49:34.454Z,97710.20
2023-04-09T23:52:02.283Z,97710.91
2023-04-09T23:54:30.798Z,97708.41
2023-04-09T23:56:59.705Z,97706.00
2023-04-09T23:59:27.831Z,97709.41
